Time;durP1;ratioP1;P1;durP2;ratioP2;P2;SDS_P1;SDS_P2;PMS_P1;PMS_P2;Temp;Humidity;BMP_temperature;BMP_pressure;BME280_temperature;BME280_humidity;BME280_pressure;Samples;Min_cycle;Max_cycle;Signal;HPM_P1;HPM_P2
2022/04/26 03:38:03;;;;;;;51.97;29.77;;;11.10;99.90;;;;;;5007881;28;20412;-69
2022/04/26 03:40:29;;;;;;;48.63;28.73;;;11.10;99.90;;;;;;5007082;28;20457;-70
2022/04/26 03:42:54;;;;;;;60.73;29.27;;;11.10;99.90;;;;;;5007332;28;20469;-70
2022/04/26 03:45:20;;;;;;;55.60;30.30;;;11.70;99.90;;;;;;5005901;28;20505;-69
2022/04/26 03:47:45;;;;;;;50.50;28.40;;;11.10;99.90;;;;;;5006851;28;20221;-69
2022/04/26 03:50:11;;;;;;;52.07;28.63;;;11.10;99.90;;;;;;5005495;28;20178;-70
2022/04/26 03:52:40;;;;;;;73.20;32.17;;;11.10;99.90;;;;;;5005901;28;20217;-70
2022/04/26 03:55:06;;;;;;;58.97;30.67;;;11.00;99.90;;;;;;5005672;28;20206;-70
2022/04/26 03:57:31;;;;;;;60.93;31.77;;;11.00;99.90;;;;;;5006573;28;20476;-70
2022/04/26 03:59:57;;;;;;;69.87;33.10;;;11.00;99.90;;;;;;5005206;28;20461;-69
2022/04/26 04:02:23;;;;;;;65.03;32.93;;;11.00;99.90;;;;;;5004284;28;20174;-70
2022/04/26 04:04:49;;;;;;;69.73;30.80;;;11.10;99.90;;;;;;5007717;28;20178;-70
2022/04/26 04:07:15;;;;;;;70.83;30.77;;;11.00;99.90;;;;;;5013524;28;20167;-70
2022/04/26 04:09:40;;;;;;;64.50;31.87;;;11.00;99.90;;;;;;5005757;28;20414;-70
2022/04/26 04:12:07;;;;;;;63.93;31.03;;;11.00;99.90;;;;;;5006436;28;20206;-70
2022/04/26 04:14:32;;;;;;;71.57;32.77;;;11.00;99.90;;;;;;5005639;28;20193;-70
2022/04/26 04:16:58;;;;;;;58.97;31.43;;;10.90;99.90;;;;;;5005907;28;20532;-70
2022/04/26 04:19:25;;;;;;;87.40;32.70;;;10.90;99.90;;;;;;5005946;28;20174;-69
2022/04/26 04:21:51;;;;;;;57.87;31.30;;;10.90;99.90;;;;;;5005204;28;20596;-70
2022/04/26 04:24:18;;;;;;;67.30;32.57;;;10.80;99.90;;;;;;5005919;28;20615;-70
2022/04/26 04:26:44;;;;;;;56.70;31.13;;;10.80;99.90;;;;;;5007390;28;20880;-70
2022/04/26 04:29:11;;;;;;;69.27;31.93;;;10.90;99.90;;;;;;5006647;28;20515;-69
2022/04/26 04:31:37;;;;;;;60.37;31.03;;;10.90;99.90;;;;;;5006555;28;20910;-70
2022/04/26 04:34:02;;;;;;;62.80;31.47;;;10.80;99.90;;;;;;5006447;28;20457;-70
2022/04/26 04:36:28;;;;;;;65.37;31.70;;;10.80;99.90;;;;;;5006464;28;20507;-70
2022/04/26 04:38:55;;;;;;;72.70;32.40;;;10.80;99.90;;;;;;5010374;28;20182;-70
2022/04/26 04:41:21;;;;;;;58.67;30.90;;;10.70;99.90;;;;;;5025059;28;20772;-70
2022/04/26 04:43:46;;;;;;;62.00;31.00;;;10.80;99.90;;;;;;5010285;28;20859;-70
2022/04/26 04:46:12;;;;;;;72.10;31.87;;;10.80;99.90;;;;;;5008018;28;20175;-70
2022/04/26 04:48:37;;;;;;;68.27;31.40;;;10.70;99.90;;;;;;5008963;28;20198;-69
2022/04/26 04:51:03;;;;;;;73.83;31.10;;;10.70;99.90;;;;;;5008300;28;20536;-69
2022/04/26 04:53:28;;;;;;;67.70;31.30;;;10.70;99.90;;;;;;5009773;28;20195;-70
2022/04/26 04:55:54;;;;;;;90.90;34.53;;;10.80;99.90;;;;;;5009468;28;20183;-70
2022/04/26 04:58:19;;;;;;;63.20;30.77;;;10.80;99.90;;;;;;5009780;28;20458;-70
2022/04/26 05:00:45;;;;;;;76.27;31.33;;;10.90;99.90;;;;;;5009685;28;20297;-69
2022/04/26 05:03:10;;;;;;;69.30;31.20;;;10.90;99.90;;;;;;5009992;28;20277;-69
2022/04/26 05:05:36;;;;;;;61.90;30.83;;;10.80;99.90;;;;;;5010026;28;20170;-70
2022/04/26 05:08:01;;;;;;;58.27;29.43;;;10.80;99.90;;;;;;5017353;28;20174;-70
2022/04/26 05:10:29;;;;;;;74.60;31.40;;;10.80;99.90;;;;;;5008840;28;20641;-70
2022/04/26 05:12:54;;;;;;;58.63;30.90;;;11.10;99.90;;;;;;5009249;28;20202;-70
2022/04/26 05:15:20;;;;;;;67.53;32.30;;;11.00;99.90;;;;;;5007797;28;20915;-70
2022/04/26 05:17:46;;;;;;;84.43;34.10;;;11.00;99.90;;;;;;5007869;28;20258;-70
2022/04/26 05:20:11;;;;;;;56.10;29.87;;;11.00;99.90;;;;;;5009773;28;20210;-69
2022/04/26 05:25:21;;;;;;;71.43;32.17;;;11.00;99.90;;;;;;5009616;28;20182;-69
2022/04/26 05:27:47;;;;;;;92.40;32.50;;;11.00;99.90;;;;;;5023046;28;20864;-69
2022/04/26 05:30:12;;;;;;;80.83;33.37;;;11.00;99.90;;;;;;5008928;28;20186;-69
2022/04/26 05:32:38;;;;;;;72.30;32.23;;;10.90;99.90;;;;;;5006797;28;20304;-68
2022/04/26 05:35:06;;;;;;;72.67;34.37;;;10.90;99.90;;;;;;5010165;28;20213;-68
2022/04/26 05:37:32;;;;;;;84.50;33.70;;;11.00;99.90;;;;;;5014293;28;20463;-69
2022/04/26 05:40:02;;;;;;;93.37;34.13;;;11.10;99.90;;;;;;5010234;28;20562;-68
2022/04/26 05:42:30;;;;;;;70.83;32.03;;;11.10;99.90;;;;;;5010014;28;20515;-68
2022/04/26 05:44:56;;;;;;;65.50;31.43;;;11.00;99.90;;;;;;5008658;28;20448;-70
2022/04/26 05:47:22;;;;;;;73.07;36.10;;;11.00;99.90;;;;;;5007247;28;20528;-69
2022/04/26 05:49:48;;;;;;;79.27;33.23;;;11.00;99.90;;;;;;5007331;28;20607;-68
2022/04/26 05:52:14;;;;;;;65.83;32.33;;;11.10;99.90;;;;;;5008204;28;20672;-68
2022/04/26 05:54:40;;;;;;;69.07;31.90;;;11.00;99.90;;;;;;5009327;28;20422;-69
2022/04/26 05:57:05;;;;;;;66.37;32.40;;;10.90;99.90;;;;;;5009403;28;20504;-69
2022/04/26 05:59:31;;;;;;;68.00;32.60;;;11.00;99.90;;;;;;5008667;28;20719;-69
2022/04/26 06:01:57;;;;;;;61.03;30.93;;;11.10;99.90;;;;;;5005908;28;20202;-69
2022/04/26 06:04:24;;;;;;;57.97;31.40;;;11.10;99.90;;;;;;5008119;28;20198;-68
2022/04/26 06:06:49;;;;;;;63.30;30.97;;;10.90;99.90;;;;;;5016312;28;20259;-69
2022/04/26 06:09:15;;;;;;;58.40;30.27;;;11.00;99.90;;;;;;5009085;28;20584;-69
2022/04/26 06:11:40;;;;;;;71.27;31.90;;;11.00;99.90;;;;;;5010161;28;20641;-69
2022/04/26 06:14:06;;;;;;;64.93;31.63;;;11.00;99.90;;;;;;5010163;28;20281;-69
2022/04/26 06:16:32;;;;;;;61.33;30.63;;;11.00;99.90;;;;;;5008674;28;20252;-70
2022/04/26 06:18:58;;;;;;;59.97;30.40;;;11.00;99.90;;;;;;5008378;28;20261;-69
2022/04/26 06:21:24;;;;;;;56.73;28.80;;;10.90;99.90;;;;;;5009320;28;20194;-71
2022/04/26 06:23:49;;;;;;;55.60;29.70;;;11.00;99.90;;;;;;5009446;28;20186;-69
2022/04/26 06:26:16;;;;;;;50.63;29.07;;;11.10;99.90;;;;;;5009610;28;20202;-70
2022/04/26 06:28:42;;;;;;;55.70;29.60;;;11.10;99.90;;;;;;5009611;28;20190;-70
2022/04/26 06:31:07;;;;;;;58.40;29.10;;;11.10;99.90;;;;;;5006659;28;20453;-70
2022/04/26 06:33:34;;;;;;;50.80;29.33;;;11.00;99.90;;;;;;5008928;28;20350;-69
2022/04/26 06:36:00;;;;;;;53.37;29.60;;;11.20;99.90;;;;;;5007675;28;20174;-70
2022/04/26 06:38:26;;;;;;;60.63;31.53;;;11.20;99.90;;;;;;5023898;28;20781;-70
2022/04/26 06:40:52;;;;;;;53.13;29.40;;;11.20;99.90;;;;;;5027578;28;20460;-70
2022/04/26 06:43:18;;;;;;;50.50;29.43;;;11.40;99.90;;;;;;5011118;28;20205;-70
2022/04/26 06:45:46;;;;;;;49.80;29.67;;;11.40;99.90;;;;;;5008494;28;20511;-69
2022/04/26 06:48:12;;;;;;;50.40;28.70;;;11.50;99.90;;;;;;5007452;28;20421;-71
2022/04/26 06:50:38;;;;;;;61.53;32.30;;;11.60;99.90;;;;;;4999288;28;20537;-69
2022/04/26 06:53:04;;;;;;;70.13;32.87;;;11.50;99.90;;;;;;5007155;28;20532;-70
2022/04/26 06:55:30;;;;;;;75.00;34.90;;;11.60;99.90;;;;;;5009136;28;20178;-70
2022/04/26 06:57:56;;;;;;;63.73;34.33;;;11.70;99.90;;;;;;5009897;28;20795;-70
2022/04/26 07:00:21;;;;;;;67.77;35.13;;;11.90;99.90;;;;;;5007021;28;20256;-69
2022/04/26 07:02:47;;;;;;;70.80;34.70;;;11.90;99.90;;;;;;5010349;28;20568;-71
2022/04/26 07:05:14;;;;;;;71.60;38.37;;;11.90;99.90;;;;;;5018730;28;20299;-70
2022/04/26 07:07:40;;;;;;;62.33;35.10;;;12.00;99.90;;;;;;5019288;28;20181;-70
2022/04/26 07:10:07;;;;;;;64.00;35.93;;;12.10;99.90;;;;;;5015400;28;20421;-70
2022/04/26 07:12:32;;;;;;;68.63;35.97;;;12.10;99.90;;;;;;5008354;28;20187;-70
2022/04/26 07:14:58;;;;;;;66.77;36.07;;;12.20;99.90;;;;;;5007422;28;20418;-70
2022/04/26 07:17:24;;;;;;;61.43;34.53;;;12.30;99.90;;;;;;5007248;28;20191;-71
2022/04/26 07:19:50;;;;;;;61.80;35.80;;;12.40;99.90;;;;;;5008085;28;20559;-70
2022/04/26 07:22:16;;;;;;;68.17;37.97;;;12.30;99.90;;;;;;5006706;28;20425;-70
2022/04/26 07:24:41;;;;;;;73.40;37.40;;;12.20;99.90;;;;;;5004041;28;20641;-70
2022/04/26 07:27:07;;;;;;;76.33;39.87;;;12.10;99.90;;;;;;5004315;28;20270;-70
2022/04/26 07:29:33;;;;;;;77.87;40.93;;;12.10;99.90;;;;;;5015733;28;20185;-70
2022/04/26 07:31:59;;;;;;;80.13;39.97;;;12.10;99.90;;;;;;5011681;28;20186;-70
2022/04/26 07:34:25;;;;;;;66.43;37.13;;;12.10;99.90;;;;;;5005111;28;20226;-71
2022/04/26 07:36:53;;;;;;;62.03;36.27;;;12.10;99.90;;;;;;5016257;28;20190;-71
2022/04/26 07:39:19;;;;;;;62.93;35.37;;;12.00;99.90;;;;;;5009203;28;20426;-70
2022/04/26 07:41:49;;;;;;;65.10;37.23;;;11.90;99.90;;;;;;5005741;28;20547;-70
2022/04/26 07:44:15;;;;;;;65.97;36.23;;;11.80;99.90;;;;;;5007391;28;20268;-69
2022/04/26 07:46:44;;;;;;;75.57;36.90;;;11.80;99.90;;;;;;5002666;28;20444;-69
2022/04/26 07:49:11;;;;;;;71.53;36.83;;;11.90;99.90;;;;;;5006741;28;20442;-68
2022/04/26 07:51:36;;;;;;;63.43;36.10;;;12.00;99.90;;;;;;5015863;28;20504;-70
2022/04/26 07:54:02;;;;;;;64.90;35.30;;;11.90;99.90;;;;;;5027361;28;20559;-70
2022/04/26 07:56:28;;;;;;;61.67;34.47;;;11.80;99.90;;;;;;5006849;28;20182;-70
2022/04/26 07:58:54;;;;;;;58.30;33.30;;;11.80;99.90;;;;;;5010028;28;20440;-70
2022/04/26 08:01:20;;;;;;;57.40;32.80;;;11.70;99.90;;;;;;4999299;28;20297;-70
2022/04/26 08:03:46;;;;;;;59.90;33.63;;;11.70;99.90;;;;;;5001319;28;20584;-69
2022/04/26 08:06:11;;;;;;;63.90;35.20;;;11.70;99.90;;;;;;5004892;28;20279;-69
2022/04/26 08:08:39;;;;;;;62.50;34.07;;;11.80;99.90;;;;;;5009800;28;20194;-70
2022/04/26 08:11:05;;;;;;;62.43;34.03;;;12.00;99.90;;;;;;5007994;28;20309;-71
2022/04/26 08:13:30;;;;;;;55.93;32.97;;;12.20;99.90;;;;;;5009643;28;20535;-70
2022/04/26 08:15:56;;;;;;;67.90;34.97;;;12.50;99.90;;;;;;5022769;28;20177;-71
2022/04/26 08:18:22;;;;;;;54.60;31.23;;;12.90;99.90;;;;;;5011247;28;20177;-70
2022/04/26 08:20:48;;;;;;;52.47;31.77;;;13.10;99.90;;;;;;5011463;28;20546;-71
2022/04/26 08:23:13;;;;;;;47.60;29.97;;;13.20;99.90;;;;;;5019229;28;20523;-69
2022/04/26 08:28:25;;;;;;;41.23;27.90;;;13.50;99.90;;;;;;5017372;28;20181;-70
2022/04/26 08:30:51;;;;;;;39.17;27.00;;;13.70;99.90;;;;;;5026349;28;20505;-70
2022/04/26 08:33:17;;;;;;;39.07;26.40;;;14.20;99.90;;;;;;5005678;28;20508;-69
2022/04/26 08:35:42;;;;;;;35.27;25.10;;;14.80;99.90;;;;;;5011347;28;20189;-69
2022/04/26 08:38:08;;;;;;;44.93;25.90;;;15.20;99.90;;;;;;5019656;28;20884;-70
2022/04/26 08:40:35;;;;;;;34.37;24.23;;;15.80;99.90;;;;;;5011834;28;20719;-70
2022/04/26 08:43:02;;;;;;;29.97;22.70;;;16.30;99.90;;;;;;5011455;28;20194;-69
2022/04/26 08:45:27;;;;;;;27.87;21.00;;;17.80;99.90;;;;;;5008353;28;20540;-71
2022/04/26 08:51:04;;;;;;;31.77;23.53;;;19.30;99.90;;;;;;4982549;28;20272;-71
2022/04/26 08:53:33;;;;;;;31.43;23.43;;;19.10;99.90;;;;;;5020306;28;20957;-71
2022/04/26 08:56:03;;;;;;;28.00;22.70;;;18.20;99.90;;;;;;5010795;28;20429;-70
2022/04/26 08:58:32;;;;;;;27.93;22.23;;;17.60;99.90;;;;;;5003670;28;20432;-70
2022/04/26 09:01:16;;;;;;;26.50;22.03;;;17.90;99.90;;;;;;5003904;28;20474;-71
2022/04/26 09:04:02;;;;;;;23.10;19.73;;;18.50;99.90;;;;;;5010019;28;20445;-71
2022/04/26 09:06:43;;;;;;;24.30;19.47;;;19.50;99.90;;;;;;5008902;28;20463;-71
2022/04/26 09:09:14;;;;;;;23.67;19.80;;;21.60;99.90;;;;;;5014692;28;20756;-71
2022/04/26 09:11:40;;;;;;;23.13;19.87;;;22.70;99.90;;;;;;5007205;28;20432;-71
2022/04/26 09:14:11;;;;;;;22.20;19.83;;;23.30;99.90;;;;;;5012102;28;20432;-71
2022/04/26 09:16:36;;;;;;;23.13;19.47;;;23.50;99.90;;;;;;5005817;28;20443;-71
2022/04/26 09:19:06;;;;;;;18.97;17.03;;;23.70;99.90;;;;;;5010069;28;20529;-70
2022/04/26 09:21:33;;;;;;;18.23;16.37;;;23.40;99.90;;;;;;5024672;28;20677;-71
2022/04/26 09:24:02;;;;;;;19.90;17.90;;;22.40;99.90;;;;;;5013775;28;20436;-71
2022/04/26 09:26:39;;;;;;;22.23;19.53;;;21.40;99.90;;;;;;5015123;28;20480;-70
2022/04/26 09:29:07;;;;;;;20.20;17.67;;;20.30;99.90;;;;;;5011325;28;20419;-70
2022/04/26 09:31:36;;;;;;;21.53;18.73;;;19.50;99.90;;;;;;5009217;28;20453;-70
2022/04/26 09:34:06;;;;;;;19.50;17.40;;;19.80;99.90;;;;;;5018776;28;20456;-71
2022/04/26 09:36:42;;;;;;;17.10;15.30;;;21.20;99.90;;;;;;5003752;28;20586;-71
2022/04/26 09:39:09;;;;;;;17.90;14.60;;;21.60;99.90;;;;;;5009000;28;20462;-71
2022/04/26 09:41:35;;;;;;;18.50;16.60;;;22.00;99.90;;;;;;5007905;28;21001;-71
2022/04/26 09:44:03;;;;;;;16.20;14.60;;;23.20;99.90;;;;;;5008754;28;20433;-71
2022/04/26 09:46:49;;;;;;;16.47;14.87;;;24.80;96.30;;;;;;5008725;28;20432;-71
2022/04/26 09:49:21;;;;;;;17.20;15.50;;;25.20;94.00;;;;;;5007149;28;20439;-72
2022/04/26 09:51:59;;;;;;;16.53;14.83;;;26.10;89.50;;;;;;5009055;28;20447;-72
2022/04/26 09:54:25;;;;;;;16.20;14.60;;;26.00;90.40;;;;;;5008620;28;20441;-71
2022/04/26 09:56:51;;;;;;;16.33;14.63;;;24.50;90.40;;;;;;5008821;28;20421;-70
2022/04/26 09:59:28;;;;;;;16.40;14.80;;;22.90;96.30;;;;;;5001192;28;20539;-72
2022/04/26 10:01:56;;;;;;;16.77;15.07;;;21.30;98.90;;;;;;5008571;28;20194;-71
2022/04/26 10:04:24;;;;;;;17.30;15.50;;;19.60;99.90;;;;;;5008138;28;20919;-71
2022/04/26 10:07:02;;;;;;;18.10;15.43;;;18.60;99.90;;;;;;5017842;28;20697;-70
2022/04/26 10:09:28;;;;;;;17.30;15.37;;;17.90;99.90;;;;;;5008180;28;20750;-70
2022/04/26 10:11:57;;;;;;;17.03;15.20;;;17.30;99.90;;;;;;5010695;28;20447;-71
2022/04/26 10:14:23;;;;;;;19.60;16.10;;;16.80;99.90;;;;;;5009448;28;20578;-70
2022/04/26 10:16:49;;;;;;;16.13;14.40;;;16.40;99.90;;;;;;5007777;28;20439;-69
2022/04/26 10:19:16;;;;;;;17.17;15.37;;;16.10;99.90;;;;;;5014096;28;20476;-71
2022/04/26 10:21:41;;;;;;;16.83;13.00;;;15.90;99.90;;;;;;5010918;28;20575;-70
2022/04/26 10:24:18;;;;;;;16.40;12.30;;;15.70;99.90;;;;;;5009880;28;20512;-70
2022/04/26 10:26:44;;;;;;;14.20;11.17;;;15.40;99.90;;;;;;5024387;28;20186;-70
2022/04/26 10:29:10;;;;;;;12.50;10.60;;;15.00;99.90;;;;;;5010104;28;20978;-71
2022/04/26 10:31:35;;;;;;;17.17;14.37;;;14.90;99.90;;;;;;5008250;28;20183;-71
2022/04/26 10:34:24;;;;;;;18.27;14.30;;;14.60;99.90;;;;;;5009199;28;20272;-70
2022/04/26 10:37:06;;;;;;;19.07;14.47;;;14.20;99.90;;;;;;5006759;28;20201;-71
2022/04/26 10:39:39;;;;;;;22.20;16.30;;;13.30;99.90;;;;;;5006412;28;20523;-71
2022/04/26 10:42:26;;;;;;;31.77;17.10;;;12.60;99.90;;;;;;5002153;28;20986;-70
2022/04/26 10:45:05;;;;;;;25.00;18.47;;;12.10;99.90;;;;;;5007066;28;20466;-70
2022/04/26 10:47:30;;;;;;;26.47;19.07;;;11.80;99.90;;;;;;5001618;28;20855;-71
2022/04/26 10:49:58;;;;;;;29.30;17.53;;;11.60;99.90;;;;;;5007418;28;20517;-71
2022/04/26 10:52:34;;;;;;;19.70;14.27;;;11.50;99.90;;;;;;5009109;28;20640;-70
2022/04/26 10:55:03;;;;;;;20.30;11.10;;;11.30;99.90;;;;;;5008151;28;20428;-70
2022/04/26 10:57:33;;;;;;;5.63;5.03;;;11.10;99.90;;;;;;5009382;28;20420;-71
2022/04/26 11:00:10;;;;;;;10.33;5.57;;;10.90;99.90;;;;;;5007873;28;20449;-71
2022/04/26 11:02:40;;;;;;;9.20;6.33;;;10.50;99.90;;;;;;5007405;28;20448;-71
2022/04/26 11:05:10;;;;;;;9.90;7.53;;;10.30;99.90;;;;;;5007518;28;20561;-72
2022/04/26 11:07:46;;;;;;;14.87;8.03;;;10.50;99.90;;;;;;5007029;28;20526;-71
2022/04/26 11:10:13;;;;;;;9.17;6.80;;;10.60;99.90;;;;;;5007314;28;20541;-71
2022/04/26 11:12:40;;;;;;;13.07;8.17;;;10.60;99.90;;;;;;5005706;28;20476;-72
2022/04/26 11:15:15;;;;;;;14.27;6.97;;;10.60;99.90;;;;;;5009342;28;20430;-71
2022/04/26 11:17:42;;;;;;;14.83;10.27;;;10.60;99.90;;;;;;5004583;28;20416;-71
2022/04/26 11:20:18;;;;;;;11.83;7.97;;;10.70;99.90;;;;;;5003598;28;20441;-71
2022/04/26 11:22:48;;;;;;;11.70;7.57;;;10.90;99.90;;;;;;5008667;28;20496;-72
2022/04/26 11:28:06;;;;;;;362.67;149.97;;;11.70;99.90;;;;;;5008308;28;20443;-76
2022/04/26 11:30:35;;;;;;;464.97;229.23;;;12.30;99.90;;;;;;5007110;28;20425;-75
2022/04/26 11:33:12;;;;;;;492.93;254.50;;;12.70;99.90;;;;;;5012439;28;20463;-74
2022/04/26 11:35:40;;;;;;;357.37;166.30;;;12.90;99.90;;;;;;5007277;28;20433;-74
2022/04/26 11:38:08;;;;;;;216.80;87.57;;;13.10;99.90;;;;;;5012788;28;20954;-75
2022/04/26 11:40:38;;;;;;;210.00;85.80;;;13.30;99.90;;;;;;5016585;28;20457;-74
2022/04/26 11:43:14;;;;;;;32.23;16.20;;;13.60;99.90;;;;;;5003805;28;20437;-75
2022/04/26 11:45:47;;;;;;;154.13;63.63;;;13.90;99.90;;;;;;5011612;28;20884;-75
2022/04/26 11:48:15;;;;;;;52.00;19.43;;;14.20;99.90;;;;;;5011856;28;20430;-75
2022/04/26 11:50:43;;;;;;;25.90;13.10;;;14.20;99.90;;;;;;5017325;28;20883;-75
2022/04/26 11:53:14;;;;;;;16.60;10.10;;;14.10;99.90;;;;;;5025223;28;20438;-75
2022/04/26 11:55:41;;;;;;;27.13;15.23;;;14.30;99.90;;;;;;5024247;28;20413;-74
2022/04/26 11:58:19;;;;;;;12.00;7.70;;;14.40;99.90;;;;;;5014875;28;20421;-74
2022/04/26 12:00:50;;;;;;;17.27;9.37;;;14.90;99.90;;;;;;5004746;28;21060;-74
2022/04/26 12:03:16;;;;;;;9.33;7.90;;;15.40;99.90;;;;;;5011950;28;20513;-75
2022/04/26 12:05:43;;;;;;;17.73;8.23;;;16.10;99.90;;;;;;5020293;28;20496;-75
2022/04/26 12:08:10;;;;;;;9.27;6.37;;;17.10;99.90;;;;;;5015274;28;20480;-75
2022/04/26 12:10:36;;;;;;;11.80;8.07;;;18.80;99.90;;;;;;5034879;28;20973;-73
2022/04/26 12:13:05;;;;;;;11.43;9.30;;;20.40;99.90;;;;;;5019796;28;20437;-74
2022/04/26 12:15:34;;;;;;;9.43;8.37;;;22.40;99.90;;;;;;5018729;28;20178;-74
2022/04/26 12:18:11;;;;;;;25.40;16.67;;;24.40;99.90;;;;;;5018077;28;20427;-74
2022/04/26 12:20:54;;;;;;;12.40;10.10;;;25.10;99.90;;;;;;5018037;28;20485;-74
2022/04/26 12:23:21;;;;;;;23.43;16.13;;;25.60;99.90;;;;;;5009495;28;20516;-74
2022/04/26 12:26:03;;;;;;;18.67;13.80;;;25.50;99.90;;;;;;5022343;28;20424;-75
2022/04/26 12:28:29;;;;;;;12.80;9.40;;;25.20;98.50;;;;;;5017585;28;20444;-73
2022/04/26 12:30:56;;;;;;;14.87;10.00;;;24.20;99.90;;;;;;5010076;28;20780;-75
2022/04/26 12:33:30;;;;;;;23.67;15.47;;;24.00;99.90;;;;;;5025548;28;20918;-74
2022/04/26 12:36:06;;;;;;;15.83;11.30;;;24.90;99.80;;;;;;5023811;28;20941;-74
2022/04/26 12:38:50;;;;;;;7.70;6.10;;;26.60;94.50;;;;;;5020350;28;20427;-74
2022/04/26 12:41:15;;;;;;;17.00;11.83;;;26.90;85.50;;;;;;5011551;28;20550;-74
2022/04/26 12:43:43;;;;;;;8.60;6.87;;;27.10;87.10;;;;;;5018302;28;20972;-74
2022/04/26 12:46:08;;;;;;;9.30;7.90;;;28.00;87.10;;;;;;5009750;28;20525;-73
2022/04/26 12:51:21;;;;;;;13.00;8.40;;;29.90;65.80;;;;;;5008233;28;20291;-73
2022/04/26 12:53:48;;;;;;;13.77;10.00;;;30.90;54.40;;;;;;5023167;28;20216;-74
2022/04/26 12:56:14;;;;;;;14.68;9.10;;;30.80;54.40;;;;;;5025168;28;20177;-74
2022/04/26 12:58:42;;;;;;;17.60;11.83;;;29.60;53.60;;;;;;5018836;28;20655;-74
2022/04/26 13:01:09;;;;;;;17.37;10.50;;;28.20;52.60;;;;;;5010703;28;20205;-74
2022/04/26 13:03:35;;;;;;;12.50;7.87;;;28.60;54.10;;;;;;5016099;28;20671;-73
2022/04/26 13:06:12;;;;;;;13.33;9.00;;;30.10;53.90;;;;;;5027869;28;20248;-74
2022/04/26 13:08:40;;;;;;;3.10;2.47;;;30.10;53.80;;;;;;5041570;28;20181;-72
2022/04/26 13:11:07;;;;;;;3.27;2.97;;;28.50;52.80;;;;;;5028203;28;20181;-71
2022/04/26 13:13:34;;;;;;;4.97;3.60;;;26.90;51.80;;;;;;5025349;28;20208;-71
2022/04/26 13:16:01;;;;;;;4.90;4.40;;;25.80;55.50;;;;;;5003295;28;20427;-72
2022/04/26 13:18:28;;;;;;;5.27;4.20;;;25.00;66.60;;;;;;5022810;28;20452;-72
2022/04/26 13:20:54;;;;;;;5.70;4.80;;;24.00;71.90;;;;;;5017862;28;20834;-72
2022/04/26 13:23:20;;;;;;;7.07;5.00;;;22.80;73.30;;;;;;5025068;28;20872;-71
2022/04/26 13:25:46;;;;;;;5.13;4.57;;;21.70;84.70;;;;;;5021091;28;20447;-72
2022/04/26 13:28:11;;;;;;;9.53;5.03;;;20.60;89.40;;;;;;5010593;28;20167;-72
2022/04/26 13:30:37;;;;;;;7.00;4.77;;;19.30;94.30;;;;;;5005675;28;20225;-71
2022/04/26 13:33:03;;;;;;;5.00;4.47;;;18.20;99.20;;;;;;5009123;28;20214;-72
2022/04/26 13:35:29;;;;;;;5.07;4.27;;;17.10;99.90;;;;;;5025254;28;20807;-71
2022/04/26 13:37:58;;;;;;;5.27;4.00;;;16.50;99.90;;;;;;5010230;28;20460;-71
2022/04/26 13:40:24;;;;;;;38.33;21.83;;;16.30;99.90;;;;;;5009553;28;20194;-73
2022/04/26 13:42:51;;;;;;;4.87;3.33;;;16.30;99.90;;;;;;5015529;28;20453;-72
2022/04/26 13:45:17;;;;;;;3.00;2.70;;;16.30;99.90;;;;;;5016899;28;20425;-72
2022/04/26 13:47:43;;;;;;;3.10;2.80;;;16.00;99.90;;;;;;5009971;28;20443;-71
2022/04/26 13:50:09;;;;;;;4.53;2.97;;;15.90;99.90;;;;;;5009460;28;20721;-72
2022/04/26 13:52:35;;;;;;;3.20;2.90;;;16.80;99.90;;;;;;5009520;28;20532;-72
2022/04/26 13:55:01;;;;;;;9.43;3.23;;;16.90;99.90;;;;;;5009976;28;20488;-70
2022/04/26 13:57:27;;;;;;;3.47;2.83;;;17.70;99.90;;;;;;5010551;28;20175;-72
2022/04/26 13:59:52;;;;;;;3.87;3.47;;;18.20;99.90;;;;;;5008202;28;20633;-71
2022/04/26 14:02:21;;;;;;;3.40;3.03;;;18.30;99.90;;;;;;5010144;28;20297;-72
2022/04/26 14:04:48;;;;;;;5.93;3.47;;;18.20;99.90;;;;;;5008306;28;20285;-72
2022/04/26 14:07:14;;;;;;;5.53;3.30;;;18.40;99.90;;;;;;5009952;28;20516;-72
2022/04/26 14:09:40;;;;;;;3.27;2.80;;;18.90;98.00;;;;;;5007253;28;20732;-73
2022/04/26 14:12:07;;;;;;;5.07;3.10;;;19.00;95.30;;;;;;5008530;28;20436;-72
2022/04/26 14:22:46;;;;;;;3.80;3.40;;;19.00;95.70;;;;;;5009767;28;20595;-71
2022/04/26 14:25:12;;;;;;;4.00;3.37;;;18.90;94.90;;;;;;5009736;28;20497;-72
2022/04/26 14:27:41;;;;;;;4.07;3.27;;;18.50;98.40;;;;;;5008318;28;20174;-72
2022/04/26 14:30:08;;;;;;;3.50;3.20;;;18.10;96.60;;;;;;5009595;28;20920;-71
2022/04/26 14:32:34;;;;;;;3.70;3.30;;;17.70;98.20;;;;;;5007087;28;20472;-71
2022/04/26 14:35:00;;;;;;;3.50;3.20;;;17.30;99.90;;;;;;5009622;28;20504;-71
2022/04/26 14:37:26;;;;;;;3.73;2.80;;;16.80;99.90;;;;;;5007857;28;20553;-70
2022/04/26 14:39:52;;;;;;;2.67;2.47;;;16.30;99.90;;;;;;5007558;28;20447;-72
2022/04/26 14:42:18;;;;;;;2.60;2.40;;;16.00;99.90;;;;;;5007019;28;20210;-72
2022/04/26 14:44:45;;;;;;;4.00;1.97;;;15.90;99.90;;;;;;5008479;28;20297;-72
2022/04/26 14:47:12;;;;;;;5.00;1.77;;;16.00;99.90;;;;;;5007194;28;20194;-71
2022/04/26 14:49:37;;;;;;;2.40;2.07;;;16.70;99.90;;;;;;5008545;28;20429;-70
2022/04/26 14:52:04;;;;;;;1.93;1.70;;;17.40;99.90;;;;;;5016974;28;20424;-72
2022/04/26 14:54:29;;;;;;;2.40;1.80;;;17.70;99.90;;;;;;5007708;28;20374;-71
2022/04/26 14:56:55;;;;;;;1.77;1.60;;;18.00;96.70;;;;;;5008244;28;21154;-72
2022/04/26 14:59:25;;;;;;;1.97;1.77;;;18.10;98.80;;;;;;5008075;28;20229;-71
2022/04/26 15:01:51;;;;;;;2.03;1.70;;;18.20;97.40;;;;;;5005991;28;20928;-71
2022/04/26 15:04:21;;;;;;;2.00;1.70;;;18.20;96.00;;;;;;5005976;28;20456;-72
2022/04/26 15:06:47;;;;;;;1.70;1.30;;;17.70;94.60;;;;;;5005565;28;20425;-72
2022/04/26 15:17:26;;;;;;;3.97;1.80;;;17.60;97.30;;;;;;5005951;28;20459;-71
2022/04/26 15:19:52;;;;;;;2.17;1.80;;;17.20;97.70;;;;;;5006484;28;20437;-72
2022/04/26 15:22:19;;;;;;;2.50;2.27;;;16.90;99.90;;;;;;5008496;28;20212;-72
2022/04/26 15:24:46;;;;;;;2.23;1.80;;;16.80;99.90;;;;;;5005953;28;20591;-72
2022/04/26 15:27:14;;;;;;;2.33;2.13;;;16.70;99.90;;;;;;5005187;28;20437;-72
2022/04/26 15:29:39;;;;;;;2.07;1.87;;;16.70;99.90;;;;;;5008393;28;20933;-72
2022/04/26 15:32:06;;;;;;;2.03;1.83;;;16.60;99.90;;;;;;5008060;28;20476;-72
2022/04/26 15:34:31;;;;;;;2.67;2.37;;;16.50;99.90;;;;;;5008348;28;20610;-72
2022/04/26 15:36:57;;;;;;;4.73;2.27;;;16.20;99.90;;;;;;5008379;28;20437;-72
2022/04/26 15:39:22;;;;;;;2.10;1.90;;;16.00;99.90;;;;;;5008160;28;20245;-72
2022/04/26 15:41:48;;;;;;;2.73;2.53;;;15.80;99.90;;;;;;5007425;28;20682;-72
2022/04/26 15:44:15;;;;;;;2.70;2.43;;;15.80;99.90;;;;;;5022634;28;20194;-72
2022/04/26 15:46:41;;;;;;;1.93;1.67;;;15.60;99.90;;;;;;5003880;28;20178;-72
2022/04/26 15:49:06;;;;;;;2.03;1.83;;;15.40;99.90;;;;;;5008924;28;20757;-72
2022/04/26 15:51:32;;;;;;;2.60;2.10;;;15.20;99.90;;;;;;5013222;28;20483;-71
2022/04/26 15:53:59;;;;;;;2.30;2.10;;;15.10;99.90;;;;;;5007922;28;20202;-72
2022/04/26 15:56:25;;;;;;;2.20;2.00;;;14.90;99.90;;;;;;5007325;28;20317;-71
2022/04/26 15:58:51;;;;;;;2.20;2.00;;;14.70;99.90;;;;;;5022770;28;20454;-72
2022/04/26 16:01:16;;;;;;;2.10;1.90;;;14.50;99.90;;;;;;5020805;28;20206;-72
2022/04/26 16:03:41;;;;;;;2.10;1.90;;;14.40;99.90;;;;;;5022689;28;20198;-72
2022/04/26 16:06:07;;;;;;;3.03;2.30;;;14.40;99.90;;;;;;5007337;28;20189;-72
2022/04/26 16:08:35;;;;;;;2.27;2.07;;;14.40;99.90;;;;;;5006748;28;20178;-72
2022/04/26 16:22:00;;;;;;;4.23;2.83;;;14.10;99.90;;;;;;5019743;28;20996;-72
2022/04/26 16:24:25;;;;;;;2.20;2.00;;;14.00;99.90;;;;;;5022756;28;20457;-72
2022/04/26 16:26:51;;;;;;;2.20;1.97;;;14.00;99.90;;;;;;5007014;28;20414;-72
2022/04/26 16:29:17;;;;;;;2.73;2.17;;;14.10;99.90;;;;;;5005052;28;20261;-72
2022/04/26 16:31:43;;;;;;;2.30;2.10;;;14.10;99.90;;;;;;5006686;28;20564;-72
2022/04/26 16:34:09;;;;;;;2.47;2.27;;;14.20;99.90;;;;;;5006911;28;20585;-71
2022/04/26 16:36:36;;;;;;;2.40;2.20;;;14.00;99.90;;;;;;5009945;28;20179;-72
2022/04/26 16:39:02;;;;;;;2.47;2.27;;;13.90;99.90;;;;;;5010949;28;20634;-72
2022/04/26 16:41:28;;;;;;;2.93;2.57;;;13.90;99.90;;;;;;5011659;28;20518;-72
2022/04/26 16:43:53;;;;;;;3.20;2.47;;;14.10;99.90;;;;;;5011223;28;20457;-72
2022/04/26 16:46:22;;;;;;;4.33;2.70;;;14.20;99.90;;;;;;5024123;28;20287;-71
2022/04/26 16:48:48;;;;;;;4.03;3.07;;;14.20;99.90;;;;;;5003283;28;20261;-72
2022/04/26 16:51:19;;;;;;;2.70;2.50;;;14.20;99.90;;;;;;5009479;28;20429;-72
2022/04/26 16:53:44;;;;;;;3.27;2.90;;;14.20;99.90;;;;;;5009277;28;20807;-71